Aérodrome Morin - Védrines

LFDB · Tarn-et-Garonne, Occitanie, 法国

罗盘
风向 的 风向 260° Aérodrome Morin - Védrines 13/31
风: 12 kt, 4 beaufort

7 kt

10 kt
改变
0 2.000 4.000 6.000 8.000 10.000
BKN 1.100 ft
BKN 5.600 ft
BKN 8.000 ft
METAR LFBO 281030Z AUTO 26012KT 9999 BKN011 BKN056 BKN080 10/08 Q1019 TEMPO SCT015TCU BKN025

METAR Aérodrome Morin - Védrines - LFDB

Aérodrome Morin - Védrines是,法国中的小机场。 该机场有一条跑道: 13/31. 该领域的国际民航组织标志是LFDB.

这份报告是针对2022年11月28日 11:30, 当地时间在Toulouse-Blagnac Airport进行的。

机场观察

风向为260°,速度为12 kt。

可见度为10 km 或者更多。

有碎云在1.100 ft的高度, 碎云在5.600 ft的高度 和 碎云在8.000 ft的高度。 破损或更高的上限为1.100 ft。

温度为10 °C,阵风为6 °C。 露点为8 °C,相对湿度为88%。 海平面上的气压为1019 hPa (QNH)。

发展趋势

  • 暂时的

    可变方向的风很小或没有。 疏云,零星散落的云朵 高耸的积云在1.500 ft的高度 和 碎云在2.500 ft的高度.

白天

今天,太阳从08:05升起,在17:19降落。 这适用于Aérodrome Morin - Védrines,世界夏令时可能有所不同。 当地时间与世界标准时间之间的时差为+1 小时。 当前,没有夏令时有效。

公司介绍

在这个机场,你可以找到飞行俱乐部。 本场上唯一已知的公司是Aéroclub Montalbanais。

体会

到Vliegles.nl去找飞行课程,跳伞和其他飞行体验。 浏览页面,了解Aérodrome Morin - Védrines附近所有可用的活动。 你也可以使用搜索功能来寻找你所在地附近的特定飞行课程、跳伞或其他飞行体验。

跑道

Id 标题 侧风 逆风 侧风 %
13/31 134°-314° 10 kt 7 kt 81 %

逆风成分最大的方向会被突出显示,并用于横风计算。 这并不一定意味着这个方向在使用。

乌云

1.100 ft BKN 碎云
5.600 ft BKN 碎云
8.000 ft BKN 碎云
1.500 ft SCT 暂时的 疏云,零星散落的云朵 高耸的积云
2.500 ft BKN 暂时的 碎云

温度 & 天气

温度 10 °C
露点 8 °C
相对湿度 88%
风寒 6 °C
Kp-index 3 (0-9)

白天

日出
08:04
中午
12:42
日落
17:20 (5:38)

小工具

你想在你的网站上有一个关于Aérodrome Morin - Védrines的当前航空天气(METAR)的小部件吗?

显示HTML代码

我们和第三方通过cookies跟踪您在我们网站上的互联网行为。如果你继续,我们认为你同意我们的饼干政策